Terminal Aerodrome Forecast
Issued by NWS Mt. Holly, NJ

Home | Current Version | Previous Version | Text Only | Print | Product List | Glossary On
Versions: 1 2 3 4 5 6 7 8 9 10 11 12 13 14 15 16 17 18 19 20 21 22
000
FTUS41 KPHI 040903 AAA
TAFPHL
TAF AMD
KPHL 040903Z 0409/0512 26005KT P6SM SCT020 BKN080
     FM040920 27012G22KT 1 1/2SM TSRA BKN018CB OVC040CB
     FM040945 VRB05KT 6SM -SHRA OVC025
     FM041100 26006KT P6SM BKN080
     FM041500 24012G22KT P6SM BKN040 PROB30 0420/0422 5SM -TSRA
      OVC035CB
     FM042300 27009G16KT P6SM BKN050
     FM050100 30005KT P6SM SCT070=

USA.gov is the U.S. government's official web portal to all federal, state and local government web resources and services.